Time;durP1;ratioP1;P1;durP2;ratioP2;P2;SDS_P1;SDS_P2;PMS_P1;PMS_P2;Temp;Humidity;BMP_temperature;BMP_pressure;BME280_temperature;BME280_humidity;BME280_pressure;Samples;Min_cycle;Max_cycle;Signal;HPM_P1;HPM_P2
2022/10/31 00:00:21;;;;;;;15.65;6.63;;;;;;;15.36;100.00;101416.47;2095135;28;20131;-73
2022/10/31 00:01:43;;;;;;;15.43;6.40;;;;;;;15.33;100.00;101410.25;2100069;28;20106;-72
2022/10/31 00:03:04;;;;;;;12.75;5.93;;;;;;;15.31;100.00;101412.00;2097699;28;20056;-73
2022/10/31 00:04:27;;;;;;;12.32;6.57;;;;;;;15.26;100.00;101406.66;2094766;28;20065;-73
2022/10/31 00:05:49;;;;;;;12.43;5.85;;;;;;;15.25;100.00;101419.94;2086512;28;20489;-73
2022/10/31 00:07:12;;;;;;;18.20;6.43;;;;;;;15.23;100.00;101416.41;2095043;28;20048;-73
2022/10/31 00:08:35;;;;;;;14.25;6.63;;;;;;;15.23;100.00;101413.75;2094478;28;20048;-73
2022/10/31 00:09:56;;;;;;;10.27;6.28;;;;;;;15.21;100.00;101418.16;2094853;28;20105;-73
2022/10/31 00:11:18;;;;;;;14.93;6.95;;;;;;;15.20;100.00;101419.03;2096259;28;20634;-73
2022/10/31 00:12:40;;;;;;;13.38;5.93;;;;;;;15.18;100.00;101419.00;2086409;28;20053;-72
2022/10/31 00:14:03;;;;;;;15.15;6.07;;;;;;;15.18;100.00;101419.00;2091977;28;20052;-73
2022/10/31 00:15:26;;;;;;;16.42;6.15;;;;;;;15.17;100.00;101419.88;2103461;28;20385;-72
2022/10/31 00:16:48;;;;;;;15.07;5.95;;;;;;;15.16;100.00;101419.00;2088473;28;20065;-73
2022/10/31 00:18:10;;;;;;;12.32;6.95;;;;;;;15.18;100.00;101420.78;2094413;28;20036;-72
2022/10/31 00:19:33;;;;;;;13.27;5.90;;;;;;;15.15;100.00;101419.91;2088589;28;20040;-73
2022/10/31 00:20:59;;;;;;;11.13;5.57;;;;;;;15.13;100.00;101411.00;2088578;28;20061;-73
2022/10/31 00:22:22;;;;;;;16.25;6.00;;;;;;;15.12;100.00;101411.88;2095380;28;20902;-73
2022/10/31 00:23:43;;;;;;;14.60;6.40;;;;;;;15.15;100.00;101413.69;2102928;28;20055;-73
2022/10/31 00:25:06;;;;;;;12.77;6.68;;;;;;;15.13;100.00;101416.31;2097075;28;20049;-73
2022/10/31 00:26:28;;;;;;;14.10;5.80;;;;;;;15.11;100.00;101419.84;2103267;28;20044;-72
2022/10/31 00:27:50;;;;;;;13.95;5.70;;;;;;;15.09;100.00;101410.97;2089102;28;20045;-73
2022/10/31 00:29:12;;;;;;;13.23;5.85;;;;;;;15.10;100.00;101412.72;2094489;28;20504;-73
2022/10/31 00:30:36;;;;;;;;;;;;;;;15.06;100.00;101416.25;2086886;28;20147;-74
2022/10/31 00:31:57;;;;;;;12.80;5.85;;;;;;;15.05;100.00;101410.06;2092056;28;19924;-73
2022/10/31 00:33:19;;;;;;;12.45;5.30;;;;;;;15.07;100.00;101413.63;2078159;28;20081;-73
2022/10/31 00:34:42;;;;;;;15.10;5.57;;;;;;;15.13;100.00;101411.00;2083992;28;20033;-73
2022/10/31 00:36:07;;;;;;;15.93;5.97;;;;;;;15.19;100.00;101410.16;2095077;28;20090;-73
2022/10/31 00:37:29;;;;;;;15.60;5.03;;;;;;;15.26;100.00;101408.44;2088599;28;20072;-73
2022/10/31 00:38:51;;;;;;;14.32;5.35;;;;;;;15.31;100.00;101406.69;2089222;28;20485;-73
2022/10/31 00:40:13;;;;;;;14.32;5.38;;;;;;;15.28;100.00;101404.91;2086385;28;20052;-74
2022/10/31 00:41:36;;;;;;;9.10;4.47;;;;;;;15.21;100.00;101405.75;2089024;28;20041;-73
2022/10/31 00:42:57;;;;;;;12.77;5.85;;;;;;;15.20;100.00;101408.38;2086628;28;20040;-73
2022/10/31 00:44:19;;;;;;;12.10;5.50;;;;;;;15.19;100.00;101407.50;2080370;28;20063;-74
2022/10/31 00:45:44;;;;;;;10.52;5.40;;;;;;;15.19;100.00;101407.50;2085377;28;20047;-73
2022/10/31 00:47:07;;;;;;;13.48;6.22;;;;;;;15.20;100.00;101409.28;2094764;28;20098;-73
2022/10/31 00:48:29;;;;;;;12.40;5.75;;;;;;;15.20;100.00;101405.72;2096993;28;20098;-73
2022/10/31 00:49:51;;;;;;;17.15;5.05;;;;;;;15.22;100.00;101406.63;2086114;28;20139;-74
2022/10/31 00:51:14;;;;;;;12.20;4.70;;;;;;;15.24;100.00;101402.19;2084575;28;20614;-73
2022/10/31 00:52:36;;;;;;;10.45;4.88;;;;;;;15.24;100.00;101400.44;2091594;28;20478;-73
2022/10/31 00:53:58;;;;;;;11.95;5.03;;;;;;;15.22;100.00;101396.00;2085334;28;20041;-73
2022/10/31 00:55:20;;;;;;;9.75;4.93;;;;;;;15.21;100.00;101399.53;2085787;28;20076;-72
2022/10/31 00:56:42;;;;;;;14.75;5.05;;;;;;;15.22;100.00;101393.34;2094245;28;20048;-73
2022/10/31 00:58:04;;;;;;;12.35;5.30;;;;;;;15.26;100.00;101396.03;2096692;28;20052;-74
2022/10/31 00:59:26;;;;;;;13.77;4.43;;;;;;;15.27;100.00;101399.56;2097159;28;20037;-73
2022/10/31 01:00:54;;;;;;;10.43;4.28;;;;;;;15.20;100.00;101395.09;2089161;28;20185;-74
2022/10/31 01:02:16;;;;;;;9.88;4.80;;;;;;;15.09;100.00;101390.59;2079796;28;20057;-73
2022/10/31 01:03:39;;;;;;;11.85;4.82;;;;;;;15.05;100.00;101399.41;2087542;28;20048;-73
2022/10/31 01:05:06;;;;;;;20.20;4.70;;;;;;;15.06;100.00;101395.88;2086663;28;20694;-74
2022/10/31 01:06:28;;;;;;;13.45;4.78;;;;;;;15.06;100.00;101392.31;2100155;28;20044;-73
2022/10/31 01:07:51;;;;;;;11.10;4.65;;;;;;;15.02;100.00;101399.41;2091323;28;20542;-74
2022/10/31 01:09:14;;;;;;;12.18;5.10;;;;;;;15.01;100.00;101392.31;2102041;28;20048;-74
2022/10/31 01:10:35;;;;;;;11.93;4.70;;;;;;;15.02;100.00;101393.19;2083356;28;20054;-73
2022/10/31 01:11:58;;;;;;;12.55;5.35;;;;;;;15.03;100.00;101387.00;2099468;28;20555;-74
2022/10/31 01:13:19;;;;;;;11.35;4.85;;;;;;;14.99;100.00;101387.84;2088275;28;20092;-74
2022/10/31 01:14:44;;;;;;;10.27;4.50;;;;;;;15.00;100.00;101389.63;2091624;28;20040;-74
2022/10/31 01:16:11;;;;;;;9.75;4.90;;;;;;;15.02;100.00;101387.88;2080824;28;20103;-73
2022/10/31 01:17:33;;;;;;;12.88;5.65;;;;;;;15.06;100.00;101389.66;2092617;28;20052;-73
2022/10/31 01:18:55;;;;;;;11.43;4.88;;;;;;;15.09;100.00;101389.72;2085894;28;20152;-73
2022/10/31 01:20:18;;;;;;;11.38;4.68;;;;;;;15.09;100.00;101389.72;2091079;28;20155;-73
2022/10/31 01:21:41;;;;;;;12.05;4.57;;;;;;;15.06;100.00;101390.56;2093932;28;20094;-73
2022/10/31 01:23:02;;;;;;;11.00;5.15;;;;;;;15.02;100.00;101386.09;2102556;28;20121;-73
2022/10/31 01:24:25;;;;;;;13.88;4.97;;;;;;;15.01;100.00;101389.66;2088218;28;20091;-73
2022/10/31 01:25:46;;;;;;;16.63;5.43;;;;;;;15.00;100.00;101385.19;2082829;28;20115;-73
2022/10/31 01:27:08;;;;;;;10.05;4.43;;;;;;;14.99;100.00;101382.53;2082741;28;20493;-73
2022/10/31 01:28:30;;;;;;;12.85;5.95;;;;;;;14.99;100.00;101379.88;2085011;28;20048;-73
2022/10/31 01:29:52;;;;;;;12.50;5.30;;;;;;;14.99;100.00;101380.75;2098603;28;20127;-74
2022/10/31 01:31:18;;;;;;;14.55;4.85;;;;;;;15.02;100.00;101377.25;2079316;28;20502;-73
2022/10/31 01:32:39;;;;;;;13.75;5.47;;;;;;;15.03;100.00;101376.38;2081690;28;20086;-73
2022/10/31 01:34:03;;;;;;;14.35;5.25;;;;;;;15.04;100.00;101372.81;2090491;28;20106;-73
2022/10/31 01:35:24;;;;;;;11.30;4.88;;;;;;;15.00;100.00;101379.88;2093623;28;20078;-73
2022/10/31 01:36:50;;;;;;;12.20;5.60;;;;;;;14.99;100.00;101379.88;2098768;28;20071;-74
2022/10/31 01:38:12;;;;;;;17.13;5.30;;;;;;;14.97;100.00;101379.84;2088521;28;20444;-72
2022/10/31 01:39:34;;;;;;;13.55;4.68;;;;;;;14.99;100.00;101375.44;2087195;28;20405;-74
2022/10/31 01:40:56;;;;;;;10.35;5.10;;;;;;;15.02;100.00;101377.25;2093822;28;20082;-73
2022/10/31 01:42:21;;;;;;;11.38;4.50;;;;;;;15.01;100.00;101376.34;2085945;28;20134;-73
2022/10/31 01:43:48;;;;;;;15.27;4.63;;;;;;;15.00;100.00;101376.34;2094378;28;20147;-73
2022/10/31 01:45:12;;;;;;;13.55;5.60;;;;;;;15.02;100.00;101372.81;2088954;28;20148;-73
2022/10/31 01:46:40;;;;;;;11.07;5.00;;;;;;;15.06;100.00;101371.94;2084734;28;20573;-73
2022/10/31 01:48:03;;;;;;;13.07;5.18;;;;;;;15.10;100.00;101372.84;2086661;28;20631;-73
2022/10/31 01:49:36;;;;;;;12.02;5.57;;;;;;;15.12;100.00;101377.31;2085788;28;20131;-73
2022/10/31 01:50:59;;;;;;;12.82;5.45;;;;;;;15.10;100.00;101371.06;2094147;28;20043;-73
2022/10/31 01:52:27;;;;;;;10.02;4.88;;;;;;;15.08;100.00;101372.84;2102435;28;20097;-73
2022/10/31 01:53:53;;;;;;;10.55;4.85;;;;;;;15.06;100.00;101377.25;2088408;28;20049;-73
2022/10/31 01:55:19;;;;;;;16.73;5.90;;;;;;;15.06;100.00;101371.06;2094260;28;20562;-73
2022/10/31 01:56:46;;;;;;;13.60;5.57;;;;;;;15.07;100.00;101370.19;2094284;28;20509;-73
2022/10/31 01:58:12;;;;;;;11.23;5.05;;;;;;;15.10;100.00;101378.16;2094400;28;20049;-73
2022/10/31 01:59:39;;;;;;;13.57;4.70;;;;;;;15.10;100.00;101378.16;2087337;28;20123;-72
2022/10/31 02:01:02;;;;;;;10.38;5.10;;;;;;;15.09;100.00;101376.41;2094896;28;20149;-72
2022/10/31 02:02:29;;;;;;;11.82;4.40;;;;;;;15.08;100.00;101371.97;2096795;28;20493;-72
2022/10/31 02:03:52;;;;;;;10.30;4.82;;;;;;;15.02;100.00;101378.13;2079780;28;20074;-72
2022/10/31 02:05:18;;;;;;;14.70;4.75;;;;;;;15.01;100.00;101375.47;2086012;28;20045;-72
2022/10/31 02:06:46;;;;;;;14.07;5.55;;;;;;;14.99;100.00;101378.09;2085887;28;20091;-72
2022/10/31 02:08:13;;;;;;;10.77;4.97;;;;;;;14.98;100.00;101378.97;2086395;28;20052;-72
2022/10/31 02:09:38;;;;;;;11.10;4.55;;;;;;;14.96;100.00;101379.84;2094434;28;20052;-72
2022/10/31 02:11:01;;;;;;;12.90;4.70;;;;;;;14.91;100.00;101374.47;2085819;28;20435;-73
2022/10/31 02:12:24;;;;;;;14.15;4.80;;;;;;;14.91;100.00;101378.91;2085382;28;20374;-73
2022/10/31 02:13:51;;;;;;;9.43;3.97;;;;;;;14.89;100.00;101372.72;2079899;28;20045;-73
2022/10/31 02:15:14;;;;;;;10.63;4.80;;;;;;;14.90;100.00;101383.31;2083214;28;20098;-72
2022/10/31 02:16:39;;;;;;;12.45;4.30;;;;;;;14.88;100.00;101378.91;2085783;28;20144;-73
2022/10/31 02:18:04;;;;;;;12.02;4.88;;;;;;;14.90;100.00;101374.50;2087972;28;20041;-72
2022/10/31 02:19:34;;;;;;;12.50;4.60;;;;;;;14.89;100.00;101380.69;2094046;28;20117;-72
2022/10/31 02:21:04;;;;;;;14.48;5.47;;;;;;;14.89;100.00;101370.06;2088415;28;20152;-72
2022/10/31 02:22:31;;;;;;;13.40;4.80;;;;;;;14.91;100.00;101379.78;2088067;28;20610;-72
2022/10/31 02:24:27;;;;;;;10.05;4.75;;;;;;;14.94;100.00;101378.94;2086222;28;20040;-72
2022/10/31 02:26:14;;;;;;;14.57;5.00;;;;;;;14.93;100.00;101377.16;2085376;28;20073;-72
2022/10/31 02:28:01;;;;;;;9.52;4.50;;;;;;;14.88;100.00;101373.59;2088433;28;20111;-72
2022/10/31 02:29:56;;;;;;;10.32;5.15;;;;;;;14.84;100.00;101371.75;2079724;28;20629;-72
2022/10/31 02:31:34;;;;;;;11.65;4.93;;;;;;;14.81;100.00;101377.97;2081075;28;20092;-72
2022/10/31 02:33:09;;;;;;;11.07;4.90;;;;;;;14.79;100.00;101369.06;2078783;28;20034;-73
2022/10/31 02:34:39;;;;;;;11.60;4.75;;;;;;;14.77;100.00;101365.50;2095468;28;20615;-72
2022/10/31 02:36:12;;;;;;;10.40;5.28;;;;;;;14.73;100.00;101369.91;2085967;28;20049;-72
2022/10/31 02:37:41;;;;;;;13.20;4.70;;;;;;;14.70;100.00;101364.56;2093822;28;20060;-73
2022/10/31 02:39:14;;;;;;;9.30;4.75;;;;;;;14.69;100.00;101368.13;2096459;28;20076;-72
2022/10/31 02:40:50;;;;;;;15.02;5.35;;;;;;;14.69;100.00;101375.22;2085632;28;20141;-72
2022/10/31 02:42:47;;;;;;;13.32;4.78;;;;;;;14.69;100.00;101376.09;2096462;28;20443;-73
2022/10/31 02:44:23;;;;;;;17.60;5.35;;;;;;;14.72;100.00;101373.44;2087236;28;20045;-73
2022/10/31 02:45:50;;;;;;;13.20;5.55;;;;;;;14.76;100.00;101377.03;2085616;28;20053;-74
2022/10/31 02:47:15;;;;;;;12.07;5.25;;;;;;;14.79;100.00;101376.16;2094113;28;20095;-74
2022/10/31 02:48:42;;;;;;;15.52;5.18;;;;;;;14.79;100.00;101377.03;2094383;28;20516;-74
2022/10/31 02:50:08;;;;;;;13.05;5.47;;;;;;;14.82;100.00;101377.09;2094415;28;20044;-74
2022/10/31 02:51:30;;;;;;;7.78;4.43;;;;;;;14.83;100.00;101372.66;2102274;28;20107;-74
2022/10/31 02:52:53;;;;;;;12.32;4.63;;;;;;;14.82;100.00;101377.09;2080142;28;20433;-74
2022/10/31 02:54:21;;;;;;;11.38;5.30;;;;;;;14.82;100.00;101377.09;2082509;28;20184;-74
2022/10/31 02:55:59;;;;;;;11.80;5.10;;;;;;;14.77;100.00;101381.44;2086123;28;20064;-73
2022/10/31 02:57:26;;;;;;;11.27;5.90;;;;;;;14.74;100.00;101382.34;2086208;28;20290;-74
2022/10/31 02:58:51;;;;;;;12.45;4.70;;;;;;;14.72;100.00;101384.06;2091885;28;20041;-74
2022/10/31 03:00:14;;;;;;;13.02;5.22;;;;;;;14.68;100.00;101382.28;2086995;28;20572;-74
2022/10/31 03:02:05;;;;;;;12.73;4.68;;;;;;;14.67;100.00;101385.81;2084899;28;20072;-74
2022/10/31 03:03:34;;;;;;;11.93;4.68;;;;;;;14.74;100.00;101390.31;2095893;28;20049;-73
2022/10/31 03:05:13;;;;;;;10.30;4.80;;;;;;;14.75;100.00;101393.84;2089729;28;20033;-74
2022/10/31 03:06:42;;;;;;;12.45;4.80;;;;;;;14.77;100.00;101397.41;2086708;28;20041;-73
2022/10/31 03:08:11;;;;;;;12.70;4.90;;;;;;;14.79;100.00;101395.66;2092323;28;20060;-73
2022/10/31 03:09:43;;;;;;;11.95;4.68;;;;;;;14.82;100.00;101398.34;2091542;28;20492;-74
2022/10/31 03:11:09;;;;;;;12.40;5.32;;;;;;;14.86;100.00;101393.94;2086720;28;20052;-74
2022/10/31 03:12:40;;;;;;;12.00;4.82;;;;;;;14.90;100.00;101401.94;2083447;28;20052;-73
2022/10/31 03:14:10;;;;;;;13.45;5.65;;;;;;;14.91;100.00;101394.84;2086473;28;20037;-74
2022/10/31 03:15:37;;;;;;;12.45;4.95;;;;;;;14.90;100.00;101399.28;2086410;28;20049;-73
2022/10/31 03:17:04;;;;;;;13.32;5.03;;;;;;;14.90;100.00;101401.94;2087260;28;20049;-73
2022/10/31 03:18:34;;;;;;;14.50;4.78;;;;;;;14.89;100.00;101402.84;2095919;28;20098;-74
2022/10/31 03:20:01;;;;;;;13.10;4.40;;;;;;;14.87;100.00;101401.94;2088095;28;20044;-73
2022/10/31 03:21:29;;;;;;;10.48;4.82;;;;;;;14.86;100.00;101401.91;2085750;28;20056;-73
2022/10/31 03:22:52;;;;;;;10.88;5.13;;;;;;;14.86;100.00;101401.91;2078542;28;20164;-72
2022/10/31 03:24:17;;;;;;;9.98;4.43;;;;;;;14.84;100.00;101398.34;2091292;28;20055;-73
2022/10/31 03:25:41;;;;;;;8.77;4.80;;;;;;;14.85;100.00;101406.34;2080782;28;20053;-72
2022/10/31 03:27:09;;;;;;;8.45;4.65;;;;;;;14.85;100.00;101401.03;2084559;28;20287;-73
2022/10/31 03:28:37;;;;;;;9.80;4.72;;;;;;;14.86;100.00;101404.56;2085729;28;20131;-73
2022/10/31 03:30:02;;;;;;;15.75;5.45;;;;;;;14.86;100.00;101405.47;2086305;28;20056;-72
2022/10/31 03:31:41;;;;;;;14.73;4.80;;;;;;;14.86;100.00;101402.81;2088077;28;20073;-72
2022/10/31 03:33:06;;;;;;;13.00;4.97;;;;;;;14.88;100.00;101409.03;2086424;28;20053;-72
2022/10/31 03:34:32;;;;;;;14.52;5.38;;;;;;;14.91;100.00;101409.03;2095766;28;20723;-72
2022/10/31 03:35:57;;;;;;;11.93;4.85;;;;;;;14.93;100.00;101403.75;2089315;28;20562;-72
2022/10/31 03:37:22;;;;;;;13.23;4.55;;;;;;;14.95;100.00;101402.00;2087165;28;20048;-73
2022/10/31 03:38:46;;;;;;;10.52;5.25;;;;;;;14.98;100.00;101407.31;2089330;28;20859;-73
2022/10/31 03:40:15;;;;;;;13.15;4.53;;;;;;;14.97;100.00;101406.44;2097218;28;20107;-72
2022/10/31 03:41:41;;;;;;;14.82;5.30;;;;;;;14.99;100.00;101410.00;2088245;28;20496;-73
2022/10/31 03:43:08;;;;;;;10.43;4.82;;;;;;;14.97;100.00;101409.09;2095216;28;20405;-73
2022/10/31 03:44:32;;;;;;;13.02;4.95;;;;;;;14.92;100.00;101402.84;2095954;28;20076;-72
2022/10/31 03:45:58;;;;;;;13.20;4.60;;;;;;;14.90;100.00;101403.75;2087402;28;20484;-73
2022/10/31 03:47:19;;;;;;;12.43;5.10;;;;;;;14.86;100.00;101402.81;2092248;28;20040;-73
2022/10/31 03:48:44;;;;;;;11.52;5.07;;;;;;;14.85;100.00;101401.03;2089550;28;20033;-73
2022/10/31 03:50:12;;;;;;;11.73;4.82;;;;;;;14.82;100.00;101397.47;2086656;28;20141;-72
2022/10/31 03:51:40;;;;;;;10.63;4.90;;;;;;;14.82;100.00;101406.31;2083429;28;20101;-74
2022/10/31 03:53:09;;;;;;;11.25;4.78;;;;;;;14.81;100.00;101404.53;2085945;28;20144;-74
2022/10/31 03:54:38;;;;;;;13.23;4.20;;;;;;;14.78;100.00;101401.84;2087370;28;20037;-74
2022/10/31 03:56:04;;;;;;;11.40;4.68;;;;;;;14.79;100.00;101408.06;2081470;28;20056;-73
2022/10/31 03:57:31;;;;;;;11.85;5.00;;;;;;;14.76;100.00;101408.94;2093751;28;20067;-73
2022/10/31 03:59:01;;;;;;;12.20;4.70;;;;;;;14.77;100.00;101407.16;2080964;28;20065;-73
2022/10/31 04:00:24;;;;;;;9.60;4.78;;;;;;;14.80;100.00;101410.72;2087844;28;20059;-73
2022/10/31 04:01:54;;;;;;;13.27;4.78;;;;;;;14.83;100.00;101407.22;2080622;28;20037;-74
2022/10/31 04:03:22;;;;;;;10.23;4.82;;;;;;;14.82;100.00;101408.09;2087742;28;20568;-75
2022/10/31 04:04:49;;;;;;;12.20;5.20;;;;;;;14.85;100.00;101414.31;2095890;28;20488;-74
2022/10/31 04:06:15;;;;;;;17.02;5.47;;;;;;;14.89;100.00;101410.81;2072841;28;20042;-74
2022/10/31 04:07:44;;;;;;;9.30;4.88;;;;;;;14.89;100.00;101405.50;2085712;28;20080;-74
2022/10/31 04:09:10;;;;;;;10.90;4.85;;;;;;;14.85;100.00;101411.66;2081079;28;20049;-74
2022/10/31 04:10:33;;;;;;;11.27;4.75;;;;;;;14.82;100.00;101416.97;2095244;28;20048;-74
2022/10/31 04:12:01;;;;;;;10.43;4.90;;;;;;;14.78;100.00;101409.81;2089401;28;20693;-74
2022/10/31 04:13:40;;;;;;;14.07;5.30;;;;;;;14.75;100.00;101409.81;2089105;28;20061;-74
2022/10/31 04:15:11;;;;;;;10.40;4.47;;;;;;;14.71;100.00;101414.19;2088532;28;20068;-75
2022/10/31 04:16:34;;;;;;;10.35;4.93;;;;;;;14.69;100.00;101415.06;2087272;28;20119;-75
2022/10/31 04:17:59;;;;;;;14.90;4.60;;;;;;;14.66;100.00;101410.59;2086602;28;20136;-74
2022/10/31 04:19:22;;;;;;;10.27;4.68;;;;;;;14.66;100.00;101413.25;2084795;28;20041;-74
2022/10/31 04:20:44;;;;;;;13.40;4.90;;;;;;;14.67;100.00;101411.50;2092115;28;20051;-75
2022/10/31 04:22:10;;;;;;;12.75;5.47;;;;;;;14.69;100.00;101417.72;2088869;28;20045;-74
2022/10/31 04:23:33;;;;;;;14.77;4.75;;;;;;;14.66;100.00;101420.34;2092602;28;20041;-75
2022/10/31 04:25:00;;;;;;;12.55;5.40;;;;;;;14.67;100.00;101419.47;2088252;28;20065;-74
2022/10/31 04:26:21;;;;;;;11.13;5.28;;;;;;;14.65;100.00;101424.75;2094146;28;20057;-74
2022/10/31 04:27:44;;;;;;;11.85;4.70;;;;;;;14.62;100.00;101430.06;2093797;28;20691;-74
2022/10/31 04:29:05;;;;;;;13.32;5.28;;;;;;;14.59;100.00;101424.72;2079559;28;20196;-74
2022/10/31 04:30:28;;;;;;;15.73;5.82;;;;;;;14.58;100.00;101427.34;2077784;28;20061;-73
2022/10/31 04:31:49;;;;;;;11.98;4.60;;;;;;;14.56;100.00;101429.13;2090295;28;20044;-74
2022/10/31 04:33:12;;;;;;;13.63;5.13;;;;;;;14.56;100.00;101426.47;2086653;28;20049;-74
2022/10/31 04:34:35;;;;;;;13.70;5.88;;;;;;;14.57;100.00;101422.94;2094759;28;20431;-74
2022/10/31 04:35:57;;;;;;;8.63;4.93;;;;;;;14.56;100.00;101435.31;2090020;28;20044;-74
2022/10/31 04:37:20;;;;;;;13.43;4.75;;;;;;;14.56;100.00;101423.81;2078375;28;20516;-75
2022/10/31 04:38:43;;;;;;;16.75;6.85;;;;;;;14.57;100.00;101428.25;2092408;28;20512;-74
2022/10/31 04:40:26;;;;;;;12.88;6.43;;;;;;;14.56;100.00;101430.00;2086596;28;20421;-74
2022/10/31 04:42:07;;;;;;;14.70;4.90;;;;;;;14.55;100.00;101432.63;2104371;28;20593;-74
2022/10/31 04:43:30;;;;;;;13.85;5.88;;;;;;;14.56;100.00;101426.47;2088527;28;20135;-74
2022/10/31 04:44:54;;;;;;;14.32;6.10;;;;;;;14.56;100.00;101418.50;2094431;28;20144;-74
2022/10/31 04:46:16;;;;;;;12.68;5.80;;;;;;;14.58;100.00;101432.66;2085962;28;20056;-74
2022/10/31 04:47:39;;;;;;;16.05;7.13;;;;;;;14.58;100.00;101427.34;2086543;28;20044;-74
2022/10/31 04:49:02;;;;;;;12.05;4.93;;;;;;;14.56;100.00;101430.00;2084007;28;20051;-74
2022/10/31 04:50:24;;;;;;;12.40;5.55;;;;;;;14.56;100.00;101437.09;2082790;28;20077;-74
2022/10/31 04:51:46;;;;;;;15.60;5.63;;;;;;;14.55;100.00;101438.84;2097205;28;20044;-74
2022/10/31 04:53:10;;;;;;;12.32;4.75;;;;;;;14.56;100.00;101439.75;2088561;28;20041;-74
2022/10/31 04:54:46;;;;;;;12.27;5.75;;;;;;;14.56;100.00;101440.63;2096278;28;20400;-74
2022/10/31 04:56:27;;;;;;;14.68;4.97;;;;;;;14.55;100.00;101435.28;2096354;28;20335;-74
2022/10/31 04:57:57;;;;;;;22.80;5.38;;;;;;;14.54;100.00;101446.78;2087112;28;20578;-74
2022/10/31 04:59:22;;;;;;;14.82;5.20;;;;;;;14.56;100.00;101445.06;2083329;28;20102;-74
2022/10/31 05:00:48;;;;;;;13.55;4.95;;;;;;;14.59;100.00;101439.75;2091789;28;20040;-73
2022/10/31 05:02:09;;;;;;;12.70;5.13;;;;;;;14.62;100.00;101443.34;2094346;28;20049;-74
2022/10/31 05:03:40;;;;;;;11.32;4.82;;;;;;;14.66;100.00;101449.56;2095250;28;20055;-74
2022/10/31 05:05:04;;;;;;;10.30;5.25;;;;;;;14.69;100.00;101449.63;2094450;28;20048;-74
2022/10/31 05:06:26;;;;;;;12.55;5.18;;;;;;;14.72;100.00;101449.63;2086415;28;20045;-74
2022/10/31 05:07:49;;;;;;;13.13;5.25;;;;;;;14.71;100.00;101445.19;2089636;28;20072;-74
2022/10/31 05:09:14;;;;;;;12.98;5.97;;;;;;;14.69;100.00;101442.53;2094292;28;20044;-74
2022/10/31 05:10:36;;;;;;;11.77;5.53;;;;;;;14.68;100.00;101446.06;2097212;28;20045;-73
2022/10/31 05:11:58;;;;;;;11.98;5.25;;;;;;;14.66;100.00;101444.25;2094199;28;20041;-74
2022/10/31 05:13:56;;;;;;;11.95;5.15;;;;;;;14.60;100.00;101447.75;2050767;28;20070;-74
2022/10/31 05:15:39;;;;;;;9.50;4.93;;;;;;;14.59;100.00;101448.63;2063046;28;20129;-74
2022/10/31 05:17:21;;;;;;;10.93;4.85;;;;;;;14.60;100.00;101457.50;2090402;28;20040;-74
2022/10/31 05:19:02;;;;;;;11.63;4.85;;;;;;;14.61;100.00;101448.66;2097123;28;20055;-74
2022/10/31 05:20:57;;;;;;;12.30;4.93;;;;;;;14.63;100.00;101455.78;2096377;28;20051;-74
2022/10/31 05:22:33;;;;;;;12.57;5.97;;;;;;;14.66;100.00;101457.53;2096100;28;20551;-74
2022/10/31 05:23:56;;;;;;;12.98;6.15;;;;;;;14.69;100.00;101453.16;2085862;28;20464;-73
2022/10/31 05:25:22;;;;;;;11.25;5.38;;;;;;;14.71;100.00;101458.47;2081822;28;20049;-74
2022/10/31 05:26:45;;;;;;;14.18;5.47;;;;;;;14.73;100.00;101459.38;2085524;28;20052;-74
2022/10/31 05:28:08;;;;;;;19.85;5.95;;;;;;;14.78;100.00;101462.97;2090888;28;20052;-74
2022/10/31 05:29:33;;;;;;;12.65;5.80;;;;;;;14.84;100.00;101465.69;2085304;28;20549;-75
2022/10/31 05:30:56;;;;;;;12.05;5.70;;;;;;;14.90;100.00;101465.75;2091675;28;20103;-74
2022/10/31 05:32:19;;;;;;;12.80;5.35;;;;;;;14.94;100.00;101470.22;2081329;28;20087;-74
2022/10/31 05:34:17;;;;;;;11.30;5.47;;;;;;;14.94;100.00;101472.00;2083382;28;20560;-73
2022/10/31 05:35:58;;;;;;;12.27;4.97;;;;;;;14.98;100.00;101473.78;2100385;28;20061;-73
2022/10/31 05:37:37;;;;;;;11.98;5.53;;;;;;;15.04;100.00;101473.84;2083122;28;20041;-73
2022/10/31 05:38:59;;;;;;;13.65;5.50;;;;;;;15.11;100.00;101468.59;2081012;28;20045;-73
2022/10/31 05:40:28;;;;;;;8.82;5.78;;;;;;;15.22;100.00;101481.13;2091797;28;20131;-73
2022/10/31 05:41:51;;;;;;;13.45;6.07;;;;;;;15.32;100.00;101477.63;2094165;28;20040;-73
2022/10/31 05:43:20;;;;;;;12.80;6.10;;;;;;;15.42;100.00;101485.72;2090292;28;20397;-73
2022/10/31 05:44:42;;;;;;;17.60;6.03;;;;;;;15.52;100.00;101486.66;2082666;28;20048;-73
2022/10/31 05:46:18;;;;;;;13.57;5.85;;;;;;;15.59;100.00;101491.19;2094554;28;20048;-73
2022/10/31 05:48:09;;;;;;;17.15;6.25;;;;;;;15.67;100.00;101485.91;2088837;28;20583;-73
2022/10/31 05:50:05;;;;;;;15.80;6.75;;;;;;;15.81;100.00;101485.13;2088487;28;20086;-73
2022/10/31 05:51:57;;;;;;;14.00;5.22;;;;;;;15.97;100.00;101487.84;2091765;28;20052;-73
2022/10/31 05:53:29;;;;;;;11.45;5.85;;;;;;;16.07;100.00;101487.03;2087346;28;20047;-73
2022/10/31 05:54:50;;;;;;;14.23;6.38;;;;;;;16.15;100.00;101490.59;2085990;28;20047;-73
2022/10/31 05:56:15;;;;;;;13.13;6.18;;;;;;;16.22;100.00;101495.06;2077233;28;20662;-73
2022/10/31 05:57:36;;;;;;;15.68;5.82;;;;;;;16.27;100.00;101490.66;2091554;28;20056;-73
2022/10/31 05:58:59;;;;;;;14.55;6.15;;;;;;;16.33;100.00;101490.69;2088242;28;20484;-75
2022/10/31 06:00:23;;;;;;;16.98;6.93;;;;;;;16.42;100.00;101492.47;2077138;28;20056;-73
2022/10/31 06:01:45;;;;;;;14.70;6.05;;;;;;;16.52;100.00;101497.88;2091053;28;20170;-73
2022/10/31 06:03:34;;;;;;;14.98;6.18;;;;;;;16.68;100.00;101496.16;2088239;28;20152;-73
2022/10/31 06:04:57;;;;;;;14.38;8.82;;;;;;;16.83;100.00;101504.19;2082696;28;20047;-72
2022/10/31 06:06:21;;;;;;;15.27;5.43;;;;;;;16.95;100.00;101498.88;2091080;28;20053;-73
2022/10/31 06:07:43;;;;;;;12.98;6.10;;;;;;;17.00;100.00;101491.75;2086632;28;20040;-73
2022/10/31 06:09:05;;;;;;;12.77;6.55;;;;;;;17.08;100.00;101494.44;2085821;28;20074;-73
2022/10/31 06:10:30;;;;;;;13.88;7.75;;;;;;;17.18;100.00;101493.56;2091995;28;20044;-73
2022/10/31 06:11:55;;;;;;;15.95;7.80;;;;;;;17.22;100.00;101487.31;2088420;28;20466;-73
2022/10/31 06:13:19;;;;;;;13.13;6.30;;;;;;;17.28;100.00;101495.31;2100838;28;20052;-73
2022/10/31 06:14:49;;;;;;;15.27;7.38;;;;;;;17.33;100.00;101492.66;2087996;28;20049;-73
2022/10/31 06:16:10;;;;;;;17.40;6.53;;;;;;;17.35;100.00;101499.78;2085402;28;20048;-73
2022/10/31 06:17:35;;;;;;;18.40;8.32;;;;;;;17.32;100.00;101493.56;2087144;28;20049;-73
2022/10/31 06:19:01;;;;;;;17.98;8.63;;;;;;;17.34;100.00;101495.31;2089427;28;20505;-73
2022/10/31 06:20:22;;;;;;;18.20;7.97;;;;;;;17.36;100.00;101496.22;2085425;28;20079;-73
2022/10/31 06:21:53;;;;;;;20.52;7.85;;;;;;;17.40;100.00;101491.75;2083356;28;20079;-72
2022/10/31 06:23:15;;;;;;;16.60;7.18;;;;;;;17.47;100.00;101497.09;2089977;28;20563;-73
2022/10/31 06:24:39;;;;;;;11.90;7.88;;;;;;;17.56;100.00;101498.88;2085709;28;20569;-73
2022/10/31 06:26:33;;;;;;;19.52;9.57;;;;;;;17.67;100.00;101502.44;2098174;28;20051;-73
2022/10/31 06:27:58;;;;;;;18.25;9.98;;;;;;;17.78;100.00;101502.44;2085943;28;20060;-73
2022/10/31 06:29:24;;;;;;;22.50;9.98;;;;;;;17.80;100.00;101511.31;2083544;28;20570;-73
2022/10/31 06:31:06;;;;;;;19.63;8.02;;;;;;;17.73;100.00;101512.22;2083495;28;20051;-73
2022/10/31 06:32:27;;;;;;;17.48;7.75;;;;;;;17.63;100.00;101511.38;2094164;28;20090;-73
2022/10/31 06:33:50;;;;;;;15.85;7.80;;;;;;;17.55;100.00;101510.44;2087603;28;20057;-73
2022/10/31 06:35:11;;;;;;;15.88;7.07;;;;;;;17.57;100.00;101513.13;2086338;28;20048;-73